Ocean Bluff, MA

8:05 AM EDT on August 27, 2016 (GMT -0400)
Marshfield

Weather History for KGHG - April, 2013

Change the Weather History Date:

Monday, April 29, 2013

  Actual Average (KPYM) Record (KPYM)
Temperature  
Mean Temperature 53 °F -  
Max Temperature 64 °F 60 °F 91 °F (1990)
Min Temperature 42 °F 38 °F 23 °F (1975)
Degree Days  
Heating Degree Days 12    
Growing Degree Days 3 (Base 50)    
Moisture  
Dew Point 37 °F    
Average Humidity 60    
Maximum Humidity 100    
Minimum Humidity 19    
Precipitation  
Precipitation 0.00 in - - ()
Sea Level Pressure  
Sea Level Pressure 30.28 in    
Wind  
Wind Speed 4 mph (SSE)    
Max Wind Speed 15 mph    
Max Gust Speed 21 mph    
Visibility 10 miles    
Events      
Averages and records for this station are not official NWS values.
T = Trace of Precipitation, MM = Missing Value Source: NWS Daily Summary

Daily Weather History Graph

Daily Weather History Graph

Search for Another Location

Airport or City:

Trip Planner

Search our weather history database for the weather conditions in past years. The results will help you decide how hot, cold, wet, or windy it might be!

Date:

Astronomy

Apr. 29, 2013 Rise Set
Actual Time 5:40 AM EDT 7:39 PM EDT
Civil Twilight 5:10 AM EDT 8:10 PM EDT
Nautical Twilight 4:33 AM EDT 8:47 PM EDT
Astronomical Twilight 3:53 AM EDT 9:27 PM EDT
Moon No Moon Rise 8:56 AM EDT (4/29)
Length of Visible Light 14h 59m
Length of Day
13h 58m
Waning Gibbous, 80% of the Moon is Illuminated
Apr 29
Waning Gibbous
May 2
Last Quarter
May 9
New
May 18
First Quarter
May 25
Full

Hourly Weather History & Observations

Time (EDT) Temp. Dew Point Humidity Pressure Visibility Wind Dir Wind Speed Gust Speed Precip Events Conditions
12:35 AM 48.2 °F 44.6 °F 87% 30.30 in 10.0 mi SSW 3.5 mph - N/A   Clear
12:55 AM 48.2 °F 44.6 °F 87% 30.30 in 10.0 mi SSW 3.5 mph - N/A   Clear
1:15 AM 48.2 °F 44.6 °F 87% 30.29 in 10.0 mi SSW 3.5 mph - N/A   Clear
1:35 AM 48.2 °F 44.6 °F 87% 30.29 in 10.0 mi Calm Calm - N/A   Clear
1:55 AM 46.4 °F 44.6 °F 93% 30.29 in 10.0 mi Calm Calm - N/A   Clear
2:15 AM 46.4 °F 44.6 °F 93% 30.29 in 10.0 mi Calm Calm - N/A   Clear
2:35 AM 44.6 °F 44.6 °F 100% 30.28 in 10.0 mi Calm Calm - N/A   Clear
2:55 AM 44.6 °F 42.8 °F 93% 30.27 in 10.0 mi Calm Calm - N/A   Clear
3:15 AM 44.6 °F 42.8 °F 93% 30.27 in 10.0 mi Calm Calm - N/A   Clear
3:35 AM 44.6 °F 42.8 °F 93% 30.27 in 10.0 mi Calm Calm - N/A   Clear
3:55 AM 44.6 °F 42.8 °F 93% 30.27 in 10.0 mi Calm Calm - N/A   Clear
4:15 AM 42.8 °F 42.8 °F 100% 30.27 in 10.0 mi Calm Calm - N/A   Clear
4:35 AM 42.8 °F 42.8 °F 100% 30.27 in 10.0 mi Calm Calm - N/A   Clear
4:55 AM 42.8 °F 42.8 °F 100% 30.27 in 10.0 mi Calm Calm - N/A   Clear
5:15 AM 42.8 °F 42.8 °F 100% 30.27 in 10.0 mi Calm Calm - N/A   Clear
5:35 AM 42.8 °F 42.8 °F 100% 30.28 in 6.0 mi Calm Calm - N/A   Clear
5:55 AM 42.8 °F 42.8 °F 100% 30.28 in 7.0 mi Calm Calm - N/A   Clear
6:15 AM 42.8 °F 42.8 °F 100% 30.29 in 10.0 mi Calm Calm - N/A   Clear
6:35 AM 42.8 °F 42.8 °F 100% 30.29 in 10.0 mi Calm Calm - N/A   Clear
6:55 AM 44.6 °F 44.6 °F 100% 30.30 in 10.0 mi Calm Calm - N/A   Clear
7:15 AM 46.4 °F 46.4 °F 100% 30.30 in 10.0 mi Calm Calm - N/A   Clear
7:35 AM 48.2 °F 46.4 °F 93% 30.31 in 10.0 mi Calm Calm - N/A   Clear
7:55 AM 50.0 °F 46.4 °F 87% 30.31 in 10.0 mi Calm Calm - N/A   Clear
8:15 AM 51.8 °F 46.4 °F 82% 30.31 in 10.0 mi SSW 3.5 mph - N/A   Clear
8:35 AM 53.6 °F 46.4 °F 77% 30.31 in 10.0 mi SSW 6.9 mph - N/A   Clear
8:55 AM 55.4 °F 46.4 °F 72% 30.30 in 10.0 mi SSW 5.8 mph - N/A   Clear
9:15 AM 57.2 °F 44.6 °F 63% 30.30 in 10.0 mi SSE 5.8 mph - N/A   Clear
9:35 AM 59.0 °F 44.6 °F 59% 30.30 in 10.0 mi SSW 4.6 mph - N/A   Clear
9:55 AM 60.8 °F 48.2 °F 63% 30.29 in 10.0 mi ESE 5.8 mph - N/A   Clear
10:15 AM 60.8 °F 46.4 °F 59% 30.29 in 10.0 mi ESE 9.2 mph - N/A   Clear
10:35 AM 59.0 °F 46.4 °F 63% 30.29 in 10.0 mi ESE 9.2 mph - N/A   Clear
10:55 AM 60.8 °F 46.4 °F 59% 30.29 in 10.0 mi ESE 10.4 mph - N/A   Clear
11:15 AM 60.8 °F 46.4 °F 59% 30.29 in 10.0 mi ESE 11.5 mph - N/A   Clear
11:35 AM 60.8 °F 44.6 °F 55% 30.29 in 10.0 mi ESE 10.4 mph - N/A   Clear
11:55 AM 60.8 °F 42.8 °F 52% 30.29 in 10.0 mi ESE 10.4 mph - N/A   Clear
12:15 PM 60.8 °F 42.8 °F 52% 30.28 in 10.0 mi SE 11.5 mph - N/A   Clear
12:35 PM 62.6 °F 41.0 °F 45% 30.27 in 10.0 mi East 10.4 mph - N/A   Clear
12:55 PM 62.6 °F 39.2 °F 42% 30.27 in 10.0 mi ESE 10.4 mph - N/A   Light Drizzle
1:15 PM 62.6 °F 39.2 °F 42% 30.26 in 10.0 mi ESE 11.5 mph - N/A   Clear
1:35 PM 62.6 °F 39.2 °F 42% 30.26 in 10.0 mi ESE 11.5 mph - N/A   Clear
1:55 PM 64.4 °F 37.4 °F 37% 30.26 in 10.0 mi East 13.8 mph - N/A   Clear
2:15 PM 62.6 °F 37.4 °F 39% 30.26 in 10.0 mi East 11.5 mph - N/A   Clear
2:35 PM 62.6 °F 37.4 °F 39% 30.25 in 10.0 mi ESE 11.5 mph - N/A   Clear
2:55 PM 62.6 °F 33.8 °F 34% 30.25 in 10.0 mi ESE 10.4 mph - N/A   Clear
3:15 PM 62.6 °F 35.6 °F 37% 30.24 in 10.0 mi ESE 11.5 mph 18.4 mph N/A   Clear
3:35 PM 64.4 °F 35.6 °F 34% 30.24 in 10.0 mi East 11.5 mph - N/A   Clear
3:55 PM 64.4 °F 35.6 °F 34% 30.23 in 10.0 mi SE 10.4 mph 17.3 mph N/A   Clear
4:15 PM 64.4 °F 30.2 °F 28% 30.23 in 10.0 mi SE 15.0 mph 20.7 mph N/A   Clear
4:35 PM 64.4 °F 28.4 °F 26% 30.24 in 10.0 mi South 10.4 mph 16.1 mph N/A   Clear
4:55 PM 64.4 °F 23.0 °F 21% 30.24 in 10.0 mi SSE 11.5 mph 17.3 mph N/A   Clear
5:15 PM 64.4 °F 24.8 °F 22% 30.24 in 10.0 mi South 10.4 mph 17.3 mph N/A   Clear
5:35 PM 62.6 °F 23.0 °F 22% 30.25 in 9.0 mi South 11.5 mph 17.3 mph N/A   Clear
5:55 PM 62.6 °F 21.2 °F 20% 30.25 in 10.0 mi SSE 6.9 mph - N/A   Clear
6:15 PM 62.6 °F 19.4 °F 19% 30.25 in 10.0 mi SSE 8.1 mph - N/A   Clear
6:35 PM 60.8 °F 19.4 °F 20% 30.25 in 10.0 mi South 8.1 mph - N/A   Clear
6:55 PM 60.8 °F 21.2 °F 22% 30.25 in 10.0 mi South 9.2 mph - N/A   Clear
7:15 PM 59.0 °F 21.2 °F 23% 30.25 in 10.0 mi South 6.9 mph - N/A   Clear
7:35 PM 57.2 °F 23.0 °F 27% 30.26 in 10.0 mi South 6.9 mph - N/A   Clear
7:55 PM 55.4 °F 23.0 °F 29% 30.26 in 10.0 mi South 4.6 mph - N/A   Clear
8:15 PM 55.4 °F 24.8 °F 31% 30.26 in 10.0 mi South 5.8 mph - N/A   Clear
8:35 PM 53.6 °F 26.6 °F 35% 30.27 in 10.0 mi South 4.6 mph - N/A   Clear
8:55 PM 53.6 °F 28.4 °F 38% 30.28 in 10.0 mi South 4.6 mph - N/A   Clear
9:15 PM 51.8 °F 28.4 °F 41% 30.29 in 10.0 mi South 4.6 mph - N/A   Clear
9:35 PM 51.8 °F 28.4 °F 41% 30.28 in 10.0 mi South 4.6 mph - N/A   Clear
9:55 PM 51.8 °F 28.4 °F 41% 30.29 in 10.0 mi South 3.5 mph - N/A   Clear
10:15 PM 51.8 °F 28.4 °F 41% 30.29 in 10.0 mi South 4.6 mph - N/A   Clear
10:35 PM 50.0 °F 28.4 °F 43% 30.29 in 10.0 mi SSW 3.5 mph - N/A   Clear
10:55 PM 48.2 °F 30.2 °F 50% 30.29 in 10.0 mi Calm Calm - N/A   Clear
11:35 PM 44.6 °F 32.0 °F 61% 30.29 in 10.0 mi Calm Calm - N/A   Clear
11:55 PM 44.6 °F 32.0 °F 61% 30.29 in 10.0 mi Calm Calm - N/A   Clear